createdAt,value
2023-02-28T00:01:36.579Z,9.00
2023-02-28T00:04:04.624Z,8.43
2023-02-28T00:06:32.536Z,9.07
2023-02-28T00:09:01.826Z,8.73
2023-02-28T00:11:30.090Z,8.48
2023-02-28T00:13:58.147Z,8.90
2023-02-28T00:16:26.217Z,8.82
2023-02-28T00:18:54.178Z,8.52
2023-02-28T00:21:22.352Z,9.02
2023-02-28T00:23:50.281Z,8.80
2023-02-28T00:26:21.598Z,9.10
2023-02-28T00:28:50.805Z,9.20
2023-02-28T00:31:18.712Z,9.15
2023-02-28T00:33:47.046Z,8.95
2023-02-28T00:36:16.304Z,9.50
2023-02-28T00:38:44.304Z,9.07
2023-02-28T00:41:12.506Z,9.25
2023-02-28T00:43:42.479Z,9.38
2023-02-28T00:46:12.640Z,9.30
2023-02-28T00:48:40.601Z,9.40
2023-02-28T00:51:08.693Z,9.38
2023-02-28T00:53:36.644Z,9.40
2023-02-28T00:56:04.687Z,9.70
2023-02-28T00:58:33.228Z,9.73
2023-02-28T01:01:02.792Z,9.57
2023-02-28T01:03:30.822Z,10.10
2023-02-28T01:06:00.157Z,10.18
2023-02-28T01:08:28.568Z,9.33
2023-02-28T01:10:56.507Z,9.52
2023-02-28T01:13:24.612Z,9.23
2023-02-28T01:15:54.885Z,9.93
2023-02-28T01:18:25.419Z,9.80
2023-02-28T01:20:53.653Z,10.20
2023-02-28T01:23:22.541Z,9.32
2023-02-28T01:25:50.448Z,10.35
2023-02-28T01:28:18.582Z,9.75
2023-02-28T01:30:50.480Z,10.30
2023-02-28T01:33:18.566Z,9.40
2023-02-28T01:35:47.822Z,10.10
2023-02-28T01:38:22.699Z,10.57
2023-02-28T01:40:51.595Z,9.68
2023-02-28T01:43:24.539Z,9.82
2023-02-28T01:45:52.899Z,9.95
2023-02-28T01:48:23.039Z,9.43
2023-02-28T01:50:52.401Z,9.90
2023-02-28T01:53:28.627Z,10.35
2023-02-28T01:55:57.000Z,10.18
2023-02-28T01:58:25.881Z,9.82
2023-02-28T02:00:53.985Z,9.73
2023-02-28T02:03:22.709Z,10.73
2023-02-28T02:05:52.131Z,10.38
2023-02-28T02:08:23.599Z,9.45
2023-02-28T02:10:55.005Z,9.88
2023-02-28T02:13:44.943Z,10.52
2023-02-28T02:16:26.156Z,9.90
2023-02-28T02:18:59.482Z,10.63
2023-02-28T02:21:56.320Z,9.85
2023-02-28T02:25:11.767Z,10.10
2023-02-28T02:28:15.384Z,9.68
2023-02-28T02:31:07.744Z,9.97
2023-02-28T02:34:15.436Z,9.80
2023-02-28T02:36:50.172Z,10.07
2023-02-28T02:39:25.195Z,9.90
2023-02-28T02:41:55.323Z,10.13
2023-02-28T02:44:27.309Z,10.23
2023-02-28T02:47:00.917Z,10.25
2023-02-28T02:49:34.228Z,9.85
2023-02-28T02:52:08.163Z,10.23
2023-02-28T02:54:38.492Z,9.57
2023-02-28T02:57:10.474Z,9.82
2023-02-28T02:59:41.768Z,8.93
2023-02-28T03:02:13.164Z,8.68
2023-02-28T03:04:45.760Z,9.18
2023-02-28T03:07:15.133Z,9.02
2023-02-28T03:09:43.143Z,9.63
2023-02-28T03:12:15.269Z,9.00
2023-02-28T03:14:58.053Z,9.48
2023-02-28T03:17:51.796Z,9.00
2023-02-28T03:20:29.652Z,9.10
2023-02-28T03:23:10.189Z,9.30
2023-02-28T03:25:45.745Z,8.85
2023-02-28T03:28:17.744Z,9.20
2023-02-28T03:30:54.645Z,9.67
2023-02-28T03:33:26.584Z,9.55
2023-02-28T03:35:57.160Z,9.82
2023-02-28T03:38:33.109Z,10.00
2023-02-28T03:41:07.588Z,9.65
2023-02-28T03:43:39.263Z,9.45
2023-02-28T03:46:12.027Z,10.15
2023-02-28T03:48:45.058Z,9.73
2023-02-28T03:51:16.549Z,8.90
2023-02-28T03:53:49.420Z,9.50
2023-02-28T03:56:20.003Z,9.30
2023-02-28T03:58:55.692Z,9.07
2023-02-28T04:01:28.138Z,9.17
2023-02-28T04:03:56.564Z,8.85
2023-02-28T04:06:25.756Z,9.32
2023-02-28T04:08:55.147Z,9.35
2023-02-28T04:11:25.791Z,8.73
2023-02-28T04:13:53.672Z,8.85
2023-02-28T04:16:33.789Z,8.35
2023-02-28T04:19:04.377Z,8.32
2023-02-28T04:21:34.043Z,8.68
2023-02-28T04:24:04.059Z,8.15
2023-02-28T04:26:32.820Z,7.55
2023-02-28T04:29:01.659Z,8.15
2023-02-28T04:31:29.972Z,7.70
2023-02-28T04:33:58.441Z,8.45
2023-02-28T04:36:26.460Z,8.02
2023-02-28T04:38:54.531Z,7.90
2023-02-28T04:41:24.317Z,8.20
2023-02-28T04:43:53.226Z,7.95
2023-02-28T04:46:21.874Z,7.57
2023-02-28T04:48:50.101Z,8.43
2023-02-28T04:51:19.672Z,7.05
2023-02-28T04:53:48.286Z,7.68
2023-02-28T04:56:18.927Z,7.88
2023-02-28T04:58:48.578Z,7.38
2023-02-28T05:01:22.761Z,7.40
2023-02-28T05:03:51.291Z,8.10
2023-02-28T05:06:19.977Z,7.25
2023-02-28T05:08:48.317Z,7.68
2023-02-28T05:11:19.436Z,7.80
2023-02-28T05:13:49.535Z,7.05
2023-02-28T05:16:18.231Z,7.30
2023-02-28T05:18:46.480Z,7.30
2023-02-28T05:21:28.290Z,7.68
2023-02-28T05:23:57.644Z,8.20
2023-02-28T05:26:26.515Z,7.25
2023-02-28T05:28:56.226Z,7.30
2023-02-28T05:31:24.928Z,7.88
2023-02-28T05:33:53.394Z,7.45
2023-02-28T05:36:21.348Z,7.63
2023-02-28T05:38:49.965Z,7.68
2023-02-28T05:41:20.148Z,7.53
2023-02-28T05:43:48.076Z,7.35
2023-02-28T05:46:17.853Z,7.30
2023-02-28T05:48:49.803Z,7.40
2023-02-28T05:51:18.310Z,7.60
2023-02-28T05:53:46.495Z,7.43
2023-02-28T05:56:14.547Z,7.32
2023-02-28T05:58:42.469Z,7.50
2023-02-28T06:01:28.794Z,7.80
2023-02-28T06:03:57.132Z,7.10
2023-02-28T06:06:25.067Z,7.47
2023-02-28T06:08:53.021Z,7.20
2023-02-28T06:11:21.314Z,7.00
2023-02-28T06:13:49.480Z,7.30
2023-02-28T06:16:17.501Z,7.07
2023-02-28T06:18:46.788Z,7.18
2023-02-28T06:21:15.156Z,7.28
2023-02-28T06:23:43.070Z,7.25
2023-02-28T06:26:10.957Z,7.53
2023-02-28T06:28:38.973Z,7.82
2023-02-28T06:31:11.577Z,7.40
2023-02-28T06:33:40.698Z,7.25
2023-02-28T06:36:11.802Z,7.38
2023-02-28T06:38:40.099Z,7.32
2023-02-28T06:41:08.873Z,7.13
2023-02-28T06:43:38.974Z,7.32
2023-02-28T06:46:09.379Z,7.10
2023-02-28T06:48:37.499Z,6.53
2023-02-28T06:51:07.108Z,6.80
2023-02-28T06:53:36.545Z,6.95
2023-02-28T06:56:07.190Z,6.50
2023-02-28T06:58:35.275Z,6.88
2023-02-28T07:01:03.644Z,6.70
2023-02-28T07:03:34.215Z,6.57
2023-02-28T07:06:02.738Z,7.07
2023-02-28T07:08:30.661Z,9.80
2023-02-28T07:11:00.117Z,7.38
2023-02-28T07:13:28.399Z,11.85
2023-02-28T07:15:57.451Z,13.52
2023-02-28T07:18:25.817Z,10.40
2023-02-28T07:20:54.551Z,13.20
2023-02-28T07:23:22.992Z,10.60
2023-02-28T07:25:52.930Z,9.13
2023-02-28T07:28:22.323Z,6.38
2023-02-28T07:30:50.359Z,6.18
2023-02-28T07:33:18.383Z,6.68
2023-02-28T07:35:46.567Z,6.53
2023-02-28T07:38:14.764Z,6.13
2023-02-28T07:40:43.073Z,5.53
2023-02-28T07:43:11.363Z,5.60
2023-02-28T07:45:40.719Z,5.38
2023-02-28T07:48:10.871Z,5.10
2023-02-28T07:50:38.946Z,4.90
2023-02-28T07:53:07.107Z,4.68
2023-02-28T07:55:35.059Z,4.50
2023-02-28T07:58:02.964Z,4.78
2023-02-28T08:00:32.895Z,4.30
2023-02-28T08:03:02.214Z,4.55
2023-02-28T08:05:30.989Z,4.20
2023-02-28T08:07:59.300Z,4.30
2023-02-28T08:10:27.344Z,3.80
2023-02-28T08:12:55.237Z,3.75
2023-02-28T08:15:23.204Z,3.60
2023-02-28T08:17:51.110Z,3.50
2023-02-28T08:20:20.474Z,3.80
2023-02-28T08:22:48.406Z,3.78
2023-02-28T08:25:17.024Z,3.70
2023-02-28T08:27:45.666Z,3.15
2023-02-28T08:30:15.236Z,3.30
2023-02-28T08:32:43.563Z,3.58
2023-02-28T08:35:12.415Z,3.63
2023-02-28T08:37:41.757Z,3.88
2023-02-28T08:40:10.933Z,3.47
2023-02-28T08:42:38.878Z,3.20
2023-02-28T08:45:08.024Z,3.38
2023-02-28T08:47:35.871Z,3.25
2023-02-28T08:50:03.813Z,3.13
2023-02-28T08:52:31.684Z,3.40
2023-02-28T08:55:00.906Z,3.05
2023-02-28T08:57:28.779Z,3.13
2023-02-28T08:59:56.722Z,2.95
2023-02-28T09:02:24.705Z,2.80
2023-02-28T09:04:52.673Z,3.03
2023-02-28T09:07:20.833Z,2.83
2023-02-28T09:09:55.603Z,2.40
2023-02-28T09:12:26.754Z,2.42
2023-02-28T09:14:55.549Z,2.70
2023-02-28T09:17:23.829Z,2.40
2023-02-28T09:19:51.805Z,2.42
2023-02-28T09:22:19.954Z,2.40
2023-02-28T09:24:47.905Z,2.30
2023-02-28T09:27:15.857Z,2.42
2023-02-28T09:29:45.303Z,2.25
2023-02-28T09:32:13.303Z,2.33
2023-02-28T09:34:41.296Z,2.20
2023-02-28T09:37:09.364Z,2.20
2023-02-28T09:39:37.321Z,2.28
2023-02-28T09:42:08.615Z,2.25
2023-02-28T09:44:41.572Z,2.05
2023-02-28T09:47:19.786Z,2.00
2023-02-28T09:49:49.426Z,2.03
2023-02-28T09:52:20.424Z,2.00
2023-02-28T09:54:48.487Z,2.08
2023-02-28T09:57:22.975Z,2.00
2023-02-28T10:00:02.540Z,2.00
2023-02-28T10:02:54.367Z,2.10
2023-02-28T10:05:26.498Z,2.10
2023-02-28T10:08:08.825Z,2.15
2023-02-28T10:10:41.686Z,2.05
2023-02-28T10:13:24.273Z,1.92
2023-02-28T10:15:57.261Z,2.08
2023-02-28T10:18:31.125Z,2.00
2023-02-28T10:21:01.694Z,2.28
2023-02-28T10:23:33.420Z,2.45
2023-02-28T10:26:03.440Z,2.17
2023-02-28T10:28:32.848Z,2.40
2023-02-28T10:31:01.023Z,2.10
2023-02-28T10:33:35.162Z,2.35
2023-02-28T10:36:04.376Z,2.28
2023-02-28T10:38:35.893Z,2.22
2023-02-28T10:41:08.880Z,2.30
2023-02-28T10:43:37.406Z,2.15
2023-02-28T10:46:13.496Z,2.20
2023-02-28T10:48:45.922Z,2.30
2023-02-28T10:51:15.681Z,2.15
2023-02-28T10:54:01.556Z,2.20
2023-02-28T10:56:31.573Z,2.50
2023-02-28T10:59:01.936Z,2.40
2023-02-28T11:01:42.692Z,2.30
2023-02-28T11:04:34.176Z,2.13
2023-02-28T11:07:04.294Z,1.90
2023-02-28T11:09:36.037Z,2.00
2023-02-28T11:12:06.196Z,2.30
2023-02-28T11:14:41.417Z,2.40
2023-02-28T11:17:17.216Z,2.28
2023-02-28T11:19:52.254Z,2.30
2023-02-28T11:22:23.023Z,2.25
2023-02-28T11:24:54.156Z,2.25
2023-02-28T11:27:50.330Z,2.35
2023-02-28T11:30:30.514Z,2.45
2023-02-28T11:32:58.567Z,2.20
2023-02-28T11:35:31.540Z,2.30
2023-02-28T11:38:00.226Z,2.40
2023-02-28T11:40:37.400Z,2.67
2023-02-28T11:43:24.376Z,2.30
2023-02-28T11:46:06.932Z,2.30
2023-02-28T11:48:44.477Z,2.17
2023-02-28T11:51:22.293Z,2.30
2023-02-28T11:54:09.669Z,2.50
2023-02-28T11:56:42.038Z,2.47
2023-02-28T11:59:43.732Z,2.67
2023-02-28T12:02:30.921Z,2.40
2023-02-28T12:05:23.662Z,2.60
2023-02-28T12:08:05.751Z,2.60
2023-02-28T12:10:39.602Z,2.40
2023-02-28T12:13:20.088Z,2.40
2023-02-28T12:16:28.889Z,2.60
2023-02-28T12:19:08.185Z,2.40
2023-02-28T12:21:49.109Z,2.65
2023-02-28T12:24:33.219Z,2.78
2023-02-28T12:27:04.681Z,2.50
2023-02-28T12:29:35.969Z,2.70
2023-02-28T12:32:11.980Z,2.65
2023-02-28T12:34:43.146Z,2.65
2023-02-28T12:37:18.053Z,2.88
2023-02-28T12:39:51.156Z,2.53
2023-02-28T12:42:25.500Z,2.95
2023-02-28T12:44:58.652Z,2.70
2023-02-28T12:47:26.703Z,2.90
2023-02-28T12:49:59.291Z,3.17
2023-02-28T12:52:33.537Z,2.97
2023-02-28T12:55:08.813Z,3.30
2023-02-28T12:57:43.436Z,3.15
2023-02-28T13:00:16.686Z,2.90
2023-02-28T13:03:21.499Z,2.78
2023-02-28T13:06:12.636Z,2.80
2023-02-28T13:09:11.021Z,2.70
2023-02-28T13:11:45.796Z,2.60
2023-02-28T13:14:23.956Z,2.55
2023-02-28T13:17:04.721Z,2.70
2023-02-28T13:19:35.564Z,2.60
2023-02-28T13:22:04.872Z,2.67
2023-02-28T13:24:44.002Z,2.60
2023-02-28T13:27:40.076Z,2.55
2023-02-28T13:30:45.712Z,2.70
2023-02-28T13:33:29.721Z,2.53
2023-02-28T13:36:23.973Z,2.70
2023-02-28T13:38:54.453Z,2.60
2023-02-28T13:41:49.008Z,2.97
2023-02-28T13:44:24.046Z,2.83
2023-02-28T13:47:25.994Z,2.70
2023-02-28T13:49:54.652Z,3.00
2023-02-28T13:52:26.016Z,2.70
2023-02-28T13:55:05.886Z,2.87
2023-02-28T13:57:46.275Z,2.65
2023-02-28T14:00:30.374Z,2.80
2023-02-28T14:03:27.803Z,2.88
2023-02-28T14:06:23.473Z,3.00
2023-02-28T14:08:57.386Z,3.00
2023-02-28T14:11:34.616Z,3.00
2023-02-28T14:14:04.050Z,3.13
2023-02-28T14:16:41.992Z,3.40
2023-02-28T14:19:15.121Z,3.38
2023-02-28T14:21:53.468Z,3.50
2023-02-28T14:24:52.398Z,3.10
2023-02-28T14:27:30.876Z,3.20
2023-02-28T14:30:15.901Z,3.10
2023-02-28T14:32:50.043Z,3.08
2023-02-28T14:35:41.438Z,2.97
2023-02-28T14:38:18.879Z,3.30
2023-02-28T14:40:49.740Z,3.10
2023-02-28T14:43:23.734Z,3.30
2023-02-28T14:45:53.958Z,3.20
2023-02-28T14:48:26.071Z,3.20
2023-02-28T14:50:56.056Z,3.50
2023-02-28T14:53:27.940Z,3.30
2023-02-28T14:55:56.040Z,3.28
2023-02-28T14:58:27.272Z,3.23
2023-02-28T15:00:57.755Z,3.20
2023-02-28T15:03:33.185Z,3.30
2023-02-28T15:06:03.168Z,3.00
2023-02-28T15:08:36.059Z,3.38
2023-02-28T15:11:07.212Z,3.22
2023-02-28T15:13:41.255Z,3.17
2023-02-28T15:16:13.570Z,3.10
2023-02-28T15:18:50.454Z,2.95
2023-02-28T15:21:20.758Z,3.47
2023-02-28T15:23:52.307Z,3.20
2023-02-28T15:26:24.370Z,3.00
2023-02-28T15:28:54.820Z,3.23
2023-02-28T15:31:28.271Z,3.38
2023-02-28T15:33:59.995Z,3.28
2023-02-28T15:36:32.690Z,3.10
2023-02-28T15:39:10.723Z,3.70
2023-02-28T15:41:43.742Z,3.90
2023-02-28T15:44:27.553Z,3.30
2023-02-28T15:47:00.632Z,3.53
2023-02-28T15:49:33.494Z,3.60
2023-02-28T15:52:03.385Z,3.72
2023-02-28T15:54:34.325Z,3.50
2023-02-28T15:57:07.161Z,3.17
2023-02-28T15:59:35.295Z,3.00
2023-02-28T16:02:18.761Z,3.20
2023-02-28T16:05:28.814Z,3.08
2023-02-28T16:07:57.856Z,3.08
2023-02-28T16:10:27.783Z,3.10
2023-02-28T16:12:57.447Z,3.30
2023-02-28T16:15:27.924Z,3.03
2023-02-28T16:17:56.779Z,3.20
2023-02-28T16:20:28.203Z,3.40
2023-02-28T16:22:56.596Z,3.10
2023-02-28T16:25:35.443Z,3.22
2023-02-28T16:28:04.054Z,3.00
2023-02-28T16:30:33.186Z,3.10
2023-02-28T16:33:01.762Z,2.90
2023-02-28T16:35:31.133Z,2.90
2023-02-28T16:37:59.116Z,2.85
2023-02-28T16:40:29.574Z,3.00
2023-02-28T16:43:01.304Z,3.03
2023-02-28T16:45:30.810Z,3.15
2023-02-28T16:47:58.929Z,3.08
2023-02-28T16:50:29.197Z,3.05
2023-02-28T16:52:58.733Z,3.30
2023-02-28T16:55:28.091Z,3.42
2023-02-28T16:57:58.156Z,3.45
2023-02-28T17:00:28.640Z,3.47
2023-02-28T17:02:57.809Z,3.53
2023-02-28T17:05:26.692Z,3.08
2023-02-28T17:07:54.629Z,3.60
2023-02-28T17:10:26.650Z,3.58
2023-02-28T17:12:58.344Z,3.40
2023-02-28T17:15:31.842Z,3.10
2023-02-28T17:17:59.884Z,2.90
2023-02-28T17:20:28.141Z,3.20
2023-02-28T17:22:56.869Z,3.10
2023-02-28T17:25:26.219Z,3.20
2023-02-28T17:28:12.542Z,2.90
2023-02-28T17:30:47.877Z,3.10
2023-02-28T17:33:15.989Z,2.92
2023-02-28T17:35:43.980Z,5.40
2023-02-28T17:38:18.581Z,8.70
2023-02-28T17:40:47.864Z,9.10
2023-02-28T17:43:16.509Z,5.53
2023-02-28T17:45:44.539Z,4.30
2023-02-28T17:48:14.022Z,3.95
2023-02-28T17:50:41.996Z,4.17
2023-02-28T17:53:10.069Z,3.80
2023-02-28T17:55:38.180Z,3.97
2023-02-28T17:58:07.390Z,4.05
2023-02-28T18:00:35.472Z,4.50
2023-02-28T18:03:03.395Z,4.18
2023-02-28T18:05:31.859Z,3.80
2023-02-28T18:08:00.239Z,3.55
2023-02-28T18:10:28.268Z,3.78
2023-02-28T18:12:56.804Z,3.85
2023-02-28T18:15:26.060Z,3.80
2023-02-28T18:17:54.244Z,3.50
2023-02-28T18:20:22.268Z,3.33
2023-02-28T18:22:50.278Z,3.67
2023-02-28T18:25:18.297Z,3.20
2023-02-28T18:27:58.180Z,3.53
2023-02-28T18:30:31.540Z,3.17
2023-02-28T18:33:00.506Z,3.33
2023-02-28T18:35:39.216Z,3.33
2023-02-28T18:38:10.179Z,3.40
2023-02-28T18:40:59.841Z,3.30
2023-02-28T18:43:28.231Z,3.60
2023-02-28T18:45:57.897Z,3.60
2023-02-28T18:48:25.784Z,3.20
2023-02-28T18:50:53.913Z,3.50
2023-02-28T18:53:21.822Z,3.78
2023-02-28T18:55:49.837Z,3.85
2023-02-28T18:58:17.704Z,3.90
2023-02-28T19:00:45.714Z,3.88
2023-02-28T19:03:14.940Z,3.78
2023-02-28T19:05:42.920Z,4.82
2023-02-28T19:08:10.842Z,4.20
2023-02-28T19:10:40.629Z,4.60
2023-02-28T19:13:09.051Z,5.20
2023-02-28T19:15:36.952Z,5.00
2023-02-28T19:18:05.605Z,5.22
2023-02-28T19:20:35.109Z,5.55
2023-02-28T19:23:03.056Z,5.30
2023-02-28T19:25:31.037Z,7.45
2023-02-28T19:27:59.000Z,6.00
2023-02-28T19:30:27.066Z,5.80
2023-02-28T19:32:55.001Z,5.30
2023-02-28T19:35:22.943Z,5.10
2023-02-28T19:37:52.683Z,5.70
2023-02-28T19:40:20.818Z,5.88
2023-02-28T19:42:48.796Z,5.30
2023-02-28T19:45:16.885Z,5.32
2023-02-28T19:47:44.955Z,5.38
2023-02-28T19:50:13.041Z,5.18
2023-02-28T19:55:12.106Z,5.72
2023-02-28T19:57:40.045Z,5.97
2023-02-28T20:00:09.522Z,6.03
2023-02-28T20:02:43.959Z,5.80
2023-02-28T20:05:11.990Z,5.70
2023-02-28T20:07:39.952Z,6.17
2023-02-28T20:10:08.474Z,6.03
2023-02-28T20:12:37.745Z,6.72
2023-02-28T20:15:06.772Z,6.15
2023-02-28T20:17:34.752Z,7.00
2023-02-28T20:20:02.769Z,6.28
2023-02-28T20:22:30.703Z,6.25
2023-02-28T20:24:58.591Z,6.40
2023-02-28T20:27:26.538Z,6.60
2023-02-28T20:29:55.749Z,6.72
2023-02-28T20:32:23.666Z,7.00
2023-02-28T20:34:51.627Z,6.95
2023-02-28T20:37:19.634Z,7.20
2023-02-28T20:39:48.521Z,7.25
2023-02-28T20:42:16.473Z,7.40
2023-02-28T20:44:44.391Z,7.15
2023-02-28T20:47:13.680Z,7.20
2023-02-28T20:49:41.715Z,7.45
2023-02-28T20:52:09.640Z,7.00
2023-02-28T20:54:38.211Z,7.07
2023-02-28T20:57:06.106Z,7.28
2023-02-28T20:59:34.415Z,7.20
2023-02-28T21:02:02.470Z,6.95
2023-02-28T21:04:31.747Z,7.13
2023-02-28T21:06:59.692Z,7.15
2023-02-28T21:09:27.591Z,6.90
2023-02-28T21:11:55.919Z,7.50
2023-02-28T21:14:25.359Z,6.90
2023-02-28T21:16:53.317Z,6.95
2023-02-28T21:19:24.056Z,7.03
2023-02-28T21:21:55.853Z,7.05
2023-02-28T21:24:23.868Z,6.80
2023-02-28T21:26:53.875Z,6.80
2023-02-28T21:29:21.834Z,7.40
2023-02-28T21:31:51.498Z,7.22
2023-02-28T21:34:19.699Z,6.90
2023-02-28T21:36:48.843Z,6.93
2023-02-28T21:39:23.203Z,7.05
2023-02-28T21:41:51.216Z,7.45
2023-02-28T21:44:19.513Z,7.38
2023-02-28T21:46:48.541Z,6.72
2023-02-28T21:49:16.932Z,7.30
2023-02-28T21:51:45.021Z,7.43
2023-02-28T21:54:13.409Z,7.07
2023-02-28T21:56:42.674Z,7.00
2023-02-28T21:59:11.703Z,7.55
2023-02-28T22:01:41.318Z,7.78
2023-02-28T22:04:11.325Z,7.43
2023-02-28T22:06:41.876Z,7.50
2023-02-28T22:09:11.465Z,7.15
2023-02-28T22:11:40.482Z,7.35
2023-02-28T22:14:12.398Z,7.47
2023-02-28T22:16:51.339Z,7.35
2023-02-28T22:19:20.927Z,7.40
2023-02-28T22:21:49.785Z,7.00
2023-02-28T22:24:20.592Z,7.40
2023-02-28T22:26:50.050Z,7.30
2023-02-28T22:29:19.595Z,7.55
2023-02-28T22:31:47.772Z,7.38
2023-02-28T22:34:15.802Z,7.38
2023-02-28T22:36:44.042Z,7.43
2023-02-28T22:39:12.056Z,7.47
2023-02-28T22:41:40.239Z,7.57
2023-02-28T22:44:08.228Z,7.30
2023-02-28T22:46:37.708Z,7.22
2023-02-28T22:49:06.520Z,7.60
2023-02-28T22:51:35.261Z,8.10
2023-02-28T22:54:04.277Z,8.07
2023-02-28T22:56:32.780Z,8.10
2023-02-28T22:59:02.067Z,8.23
2023-02-28T23:01:32.210Z,7.65
2023-02-28T23:04:02.659Z,7.60
2023-02-28T23:06:33.103Z,8.15
2023-02-28T23:09:03.330Z,7.53
2023-02-28T23:11:33.946Z,8.30
2023-02-28T23:14:02.122Z,7.30
2023-02-28T23:16:32.464Z,7.40
2023-02-28T23:19:04.349Z,8.13
2023-02-28T23:21:32.894Z,7.78
2023-02-28T23:24:02.582Z,7.87
2023-02-28T23:26:31.673Z,7.43
2023-02-28T23:28:59.733Z,8.43
2023-02-28T23:31:27.926Z,7.82
2023-02-28T23:33:57.548Z,7.80
2023-02-28T23:36:26.941Z,8.07
2023-02-28T23:38:54.953Z,8.25
2023-02-28T23:41:24.125Z,7.90
2023-02-28T23:43:53.450Z,8.07
2023-02-28T23:46:22.305Z,8.20
2023-02-28T23:48:50.700Z,8.07
2023-02-28T23:51:20.678Z,8.02
2023-02-28T23:53:52.044Z,8.10
2023-02-28T23:56:21.695Z,8.02
2023-02-28T23:58:50.145Z,8.02
